Tipton Airport
KFME : rendu visible

Aérodrome :











RETROUVEZ-NOUS SUR...

 
LOGIN :

S'inscrire | Disclaimer

   EN    FR    IT 

 









Légende :    VFR   VFR Marginal   IFR   IFR Intensif   IFR Très Intensif
Visi : 
Plafond : 
>= 8 km
>= 3000ft
5 à 8 km
1000 à 3000 ft
1500m à 5 km
500 à 1000 ft
800 à 1500m
200 à 500 ft
< 800m
< 200 ft
Symboles :   Orages  Brouillard  Fortes neiges  Fortes précipitations  Vent > 20 kt






- Altitude de l'aérodrome : 150 ft


KFME - Tipton

DERNIER METAR :
  • 190248Z AUTO 22009G14KT 10SM OVC009 02/01 A2989 RMK AO1

METARs EXPIRÉS :
  • 190227Z AUTO 21008KT 10SM OVC011 01/01 A2990 RMK AO1
  • 190206Z AUTO 20008G14KT 10SM OVC011 01/01 A2993 RMK AO1
  • 190148Z AUTO 21008G15KT 10SM OVC011 01/00 A2994 RMK AO1
  • 190127Z AUTO 20008KT 10SM OVC011 00/00 A2995 RMK AO1
  • 190106Z AUTO 21006KT 170V230 10SM BKN013 OVC017 00/00 A2997 RMK AO1
  • 190048Z AUTO 21004KT 10SM OVC013 00/00 A2999 RMK AO1
  • 190027Z AUTO 21007KT 10SM OVC013 00/00 A3000 RMK AO1
  • 190006Z AUTO 21007KT 10SM BKN014 OVC034 00/00 A3002 RMK AO1

TAF N/A



MET'MAP, la Météo Aéronautique d'un coup d'oeil ! - Copyright ORBIFLY Décembre 2007 - Disclaimer

ORBIFLY MET'MAP TEAM :

Programmation & Développement : Alexandra Zaïnal
Sur une idée originale de : Baudouin d'Aumeries
Assistance à la programmation : Marc-Olivier Méhu
Soutien technique & logistique : Manuel Goepfert

Contact : metmap@orbifly.com




SOURCES & CREDITS :

   NOAA       Earth
Advisory